Orbital elements of SL-12 R/B(2)
| Launched | 2 November 1990 |
| Flight ended | – |
| Launch site | Tyuratam Missile and Space Center, Kazakhstan (Also known as Baikonur Cosmodrome) |
| Owner | Commonwealth of Independent States (former USSR) |
| NORAD ID | 20926 |
| Date fetched |
Epoch osculation |
Inc. [°] |
Ecc. | RA asc node [hr] |
Arg Peri. [°] |
Mean anom [°] |
Mean motion [rev/day] |
Abs. mag |
| Date fetched |
Epoch osculation |
Inc. [°] |
Ecc. | RA asc node [hr] |
Arg Peri. [°] |
Mean anom [°] |
Mean motion [rev/day] |
Abs. mag |
| 2026 May 05 17:57 | 2026 May 05 05:41:11 | 12.5357 | 0.00331 | 22.4225 | 153.2157 | 41.7715 | 1.00862 | – |
| 2026 May 04 17:57 | 2026 Apr 30 07:51:14 | 12.5406 | 0.00331 | 22.4248 | 153.1075 | 41.7715 | 1.00862 | – |
| 2026 May 03 17:57 | 2026 Apr 30 07:51:14 | 12.5406 | 0.00331 | 22.4248 | 153.1075 | 41.7715 | 1.00862 | – |
| 2026 May 02 17:57 | 2026 Apr 30 07:51:14 | 12.5406 | 0.00331 | 22.4248 | 153.1075 | 41.7715 | 1.00862 | – |
| 2026 May 01 17:56 | 2026 Apr 30 07:51:14 | 12.5406 | 0.00331 | 22.4248 | 153.1075 | 41.7715 | 1.00862 | – |
| 2026 Apr 30 17:56 | 2026 Apr 30 07:51:14 | 12.5406 | 0.00331 | 22.4248 | 153.1075 | 41.7715 | 1.00862 | – |
| 2026 Apr 29 17:57 | 2026 Apr 24 09:15:00 | 12.5464 | 0.00331 | 22.4275 | 152.8730 | 41.7715 | 1.00862 | – |
| 2026 Apr 28 17:56 | 2026 Apr 24 09:15:00 | 12.5464 | 0.00331 | 22.4275 | 152.8730 | 41.7715 | 1.00862 | – |
| 2026 Apr 27 17:58 | 2026 Apr 24 09:15:00 | 12.5464 | 0.00331 | 22.4275 | 152.8730 | 41.7715 | 1.00862 | – |
| 2026 Apr 26 17:58 | 2026 Apr 24 09:15:00 | 12.5464 | 0.00331 | 22.4275 | 152.8730 | 41.7715 | 1.00862 | – |
| 2026 Apr 25 17:58 | 2026 Apr 24 09:15:00 | 12.5464 | 0.00331 | 22.4275 | 152.8730 | 41.7715 | 1.00862 | – |
| 2026 Apr 24 17:59 | 2026 Apr 24 09:15:00 | 12.5464 | 0.00331 | 22.4275 | 152.8730 | 41.7715 | 1.00862 | – |
| 2026 Apr 23 17:57 | 2026 Apr 19 09:18:26 | 12.5510 | 0.00331 | 22.4299 | 152.7060 | 41.7715 | 1.00862 | – |
| 2026 Apr 22 17:57 | 2026 Apr 19 09:18:26 | 12.5510 | 0.00331 | 22.4299 | 152.7060 | 41.7715 | 1.00862 | – |
| 2026 Apr 21 17:57 | 2026 Apr 19 09:18:26 | 12.5510 | 0.00331 | 22.4299 | 152.7060 | 41.7715 | 1.00862 | – |
| 2026 Apr 20 17:57 | 2026 Apr 19 09:18:26 | 12.5510 | 0.00331 | 22.4299 | 152.7060 | 41.7715 | 1.00862 | – |
| 2026 Apr 19 17:58 | 2026 Apr 19 09:18:26 | 12.5510 | 0.00331 | 22.4299 | 152.7060 | 41.7715 | 1.00862 | – |
| 2026 Apr 18 17:56 | 2026 Apr 12 10:17:26 | 12.5577 | 0.00329 | 22.4332 | 152.7011 | 41.7715 | 1.00862 | – |
| 2026 Apr 16 17:57 | 2026 Apr 12 10:17:26 | 12.5577 | 0.00329 | 22.4332 | 152.7011 | 41.7715 | 1.00862 | – |
| 2026 Apr 14 17:57 | 2026 Apr 12 10:17:26 | 12.5577 | 0.00329 | 22.4332 | 152.7011 | 41.7715 | 1.00862 | – |
| 2026 Apr 13 17:57 | 2026 Apr 12 10:17:26 | 12.5577 | 0.00329 | 22.4332 | 152.7011 | 41.7715 | 1.00862 | – |
| 2026 Apr 12 17:57 | 2026 Apr 08 10:04:38 | 12.5615 | 0.00329 | 22.4351 | 152.7287 | 41.7715 | 1.00862 | – |
| 2026 Apr 11 17:57 | 2026 Apr 08 10:04:38 | 12.5615 | 0.00329 | 22.4351 | 152.7287 | 41.7715 | 1.00862 | – |
| 2026 Apr 10 17:58 | 2026 Apr 08 10:04:38 | 12.5615 | 0.00329 | 22.4351 | 152.7287 | 41.7715 | 1.00862 | – |
| 2026 Apr 09 18:01 | 2026 Apr 08 10:04:38 | 12.5615 | 0.00329 | 22.4351 | 152.7287 | 41.7715 | 1.00862 | – |
| 2026 Apr 08 17:57 | 2026 Apr 08 10:04:38 | 12.5615 | 0.00329 | 22.4351 | 152.7287 | 41.7715 | 1.00862 | – |